createdAt,value
2017-09-29T00:01:02.964Z,13.33
2017-09-29T00:03:30.712Z,13.40
2017-09-29T00:05:58.553Z,12.93
2017-09-29T00:08:26.204Z,18.80
2017-09-29T00:10:53.863Z,13.13
2017-09-29T00:13:21.620Z,13.30
2017-09-29T00:15:49.674Z,19.77
2017-09-29T00:18:17.328Z,15.20
2017-09-29T00:20:45.495Z,16.77
2017-09-29T00:23:13.543Z,13.60
2017-09-29T00:25:41.596Z,13.93
2017-09-29T00:28:09.915Z,14.77
2017-09-29T00:30:37.673Z,14.40
2017-09-29T00:33:05.420Z,17.60
2017-09-29T00:35:33.167Z,18.60
2017-09-29T00:38:00.863Z,15.93
2017-09-29T00:40:28.636Z,14.97
2017-09-29T00:42:56.371Z,15.50
2017-09-29T00:45:24.159Z,16.27
2017-09-29T00:47:51.835Z,14.23
2017-09-29T00:50:20.165Z,18.10
2017-09-29T00:52:47.866Z,15.90
2017-09-29T00:55:15.587Z,14.10
2017-09-29T00:57:43.319Z,15.80
2017-09-29T01:00:10.963Z,16.30
2017-09-29T01:02:38.631Z,12.40
2017-09-29T01:05:07.057Z,14.20
2017-09-29T01:07:34.760Z,19.47
2017-09-29T01:10:02.483Z,21.63
2017-09-29T01:12:30.622Z,13.03
2017-09-29T01:14:58.291Z,10.17
2017-09-29T01:17:26.411Z,14.60
2017-09-29T01:19:54.202Z,12.80
2017-09-29T01:22:21.928Z,10.60
2017-09-29T01:24:50.047Z,12.57
2017-09-29T01:27:17.828Z,10.73
2017-09-29T01:29:45.659Z,10.87
2017-09-29T01:32:13.387Z,12.00
2017-09-29T01:34:41.255Z,14.20
2017-09-29T01:37:08.967Z,12.27
2017-09-29T01:39:36.749Z,16.40
2017-09-29T01:42:04.605Z,11.30
2017-09-29T01:44:32.314Z,14.30
2017-09-29T01:47:00.094Z,10.67
2017-09-29T01:49:27.867Z,18.73
2017-09-29T01:51:55.959Z,16.17
2017-09-29T01:54:23.692Z,9.50
2017-09-29T01:56:51.484Z,11.00
2017-09-29T01:59:19.236Z,17.73
2017-09-29T02:01:47.092Z,14.53
2017-09-29T02:04:14.884Z,16.47
2017-09-29T02:06:42.801Z,13.13
2017-09-29T02:09:10.536Z,12.73
2017-09-29T02:11:38.387Z,13.63
2017-09-29T02:14:06.132Z,12.03
2017-09-29T02:16:33.830Z,12.60
2017-09-29T02:19:01.631Z,11.20
2017-09-29T02:21:29.356Z,14.27
2017-09-29T02:23:57.121Z,13.77
2017-09-29T02:26:24.948Z,14.20
2017-09-29T02:28:52.722Z,12.20
2017-09-29T02:31:20.470Z,9.93
2017-09-29T02:33:48.346Z,11.70
2017-09-29T02:36:16.475Z,11.10
2017-09-29T02:38:44.196Z,11.03
2017-09-29T02:41:12.176Z,16.47
2017-09-29T02:43:39.922Z,16.93
2017-09-29T02:46:07.668Z,14.30
2017-09-29T02:48:35.463Z,15.90
2017-09-29T02:51:03.266Z,12.50
2017-09-29T02:53:30.990Z,13.77
2017-09-29T02:55:58.775Z,15.53
2017-09-29T02:58:26.987Z,15.37
2017-09-29T03:00:56.882Z,22.27
2017-09-29T03:03:25.774Z,17.23
2017-09-29T03:05:56.301Z,15.10
2017-09-29T03:08:24.043Z,15.37
2017-09-29T03:10:51.800Z,13.53
2017-09-29T03:13:19.458Z,20.63
2017-09-29T03:15:47.111Z,11.63
2017-09-29T03:18:15.443Z,20.77
2017-09-29T03:20:43.198Z,12.37
2017-09-29T03:23:10.944Z,16.87
2017-09-29T03:25:38.691Z,15.70
2017-09-29T03:28:06.438Z,17.20
2017-09-29T03:30:34.385Z,12.83
2017-09-29T03:33:02.150Z,19.57
2017-09-29T03:35:29.884Z,13.23
2017-09-29T03:37:57.569Z,13.30
2017-09-29T03:40:25.706Z,10.77
2017-09-29T03:42:53.437Z,9.80
2017-09-29T03:45:21.160Z,13.70
2017-09-29T03:47:48.914Z,12.97
2017-09-29T03:50:20.503Z,15.30
2017-09-29T03:52:51.171Z,13.37
2017-09-29T03:55:20.915Z,13.03
2017-09-29T03:57:50.674Z,10.20
2017-09-29T04:00:18.522Z,11.67
2017-09-29T04:02:46.186Z,14.03
2017-09-29T04:05:14.390Z,10.03
2017-09-29T04:07:42.039Z,13.93
2017-09-29T04:10:09.821Z,12.30
2017-09-29T04:12:37.667Z,16.30
2017-09-29T04:15:05.402Z,12.03
2017-09-29T04:17:33.134Z,12.27
2017-09-29T04:20:00.891Z,9.20
2017-09-29T04:22:28.655Z,13.20
2017-09-29T04:24:56.403Z,11.97
2017-09-29T04:27:24.356Z,15.43
2017-09-29T04:29:52.044Z,13.63
2017-09-29T04:32:20.104Z,10.00
2017-09-29T04:34:48.000Z,13.07
2017-09-29T04:37:15.756Z,11.37
2017-09-29T04:39:43.503Z,14.27
2017-09-29T04:42:11.294Z,9.63
2017-09-29T04:44:38.997Z,8.17
2017-09-29T04:47:06.642Z,7.40
2017-09-29T04:49:34.390Z,10.67
2017-09-29T04:52:02.135Z,7.70
2017-09-29T04:54:29.883Z,7.77
2017-09-29T04:56:57.632Z,8.73
2017-09-29T04:59:25.280Z,13.13
2017-09-29T05:01:52.935Z,17.23
2017-09-29T05:04:20.688Z,12.33
2017-09-29T05:06:48.339Z,13.90
2017-09-29T05:09:16.399Z,10.30
2017-09-29T05:11:44.525Z,8.33
2017-09-29T05:14:12.274Z,27.53
2017-09-29T05:16:39.918Z,11.20
2017-09-29T05:19:07.638Z,7.73
2017-09-29T05:21:35.339Z,6.57
2017-09-29T05:24:03.469Z,11.27
2017-09-29T05:26:31.307Z,12.43
2017-09-29T05:28:59.064Z,8.00
2017-09-29T05:31:26.727Z,10.67
2017-09-29T05:33:54.432Z,9.57
2017-09-29T05:36:22.083Z,10.00
2017-09-29T05:38:49.720Z,7.57
2017-09-29T05:41:17.414Z,13.43
2017-09-29T05:43:45.063Z,17.97
2017-09-29T05:46:13.098Z,9.53
2017-09-29T05:48:40.841Z,8.70
2017-09-29T05:51:08.496Z,13.27
2017-09-29T05:53:36.232Z,8.57
2017-09-29T05:56:03.964Z,14.77
2017-09-29T05:58:31.612Z,11.80
2017-09-29T06:00:59.262Z,11.40
2017-09-29T06:03:26.963Z,9.93
2017-09-29T06:05:54.613Z,7.27
2017-09-29T06:08:22.263Z,9.53
2017-09-29T06:10:49.959Z,7.63
2017-09-29T06:13:17.599Z,8.03
2017-09-29T06:15:45.252Z,7.90
2017-09-29T06:18:12.963Z,11.00
2017-09-29T06:20:41.044Z,7.30
2017-09-29T06:23:08.695Z,6.90
2017-09-29T06:25:36.441Z,7.00
2017-09-29T06:28:04.139Z,9.47
2017-09-29T06:30:31.855Z,7.90
2017-09-29T06:32:59.969Z,11.23
2017-09-29T06:35:27.622Z,11.67
2017-09-29T06:37:55.288Z,8.30
2017-09-29T06:40:22.991Z,9.47
2017-09-29T06:42:50.648Z,8.13
2017-09-29T06:45:18.315Z,7.03
2017-09-29T06:47:46.022Z,13.30
2017-09-29T06:50:13.662Z,7.27
2017-09-29T06:52:41.315Z,10.00
2017-09-29T06:55:09.064Z,8.97
2017-09-29T06:57:36.723Z,13.77
2017-09-29T07:00:04.411Z,9.13
2017-09-29T07:02:32.499Z,9.53
2017-09-29T07:05:00.147Z,10.50
2017-09-29T07:07:27.869Z,7.13
2017-09-29T07:09:55.980Z,5.93
2017-09-29T07:12:23.637Z,12.67
2017-09-29T07:14:51.304Z,7.70
2017-09-29T07:17:19.416Z,14.97
2017-09-29T07:19:47.085Z,6.93
2017-09-29T07:22:14.748Z,8.80
2017-09-29T07:24:44.555Z,9.53
2017-09-29T07:27:13.600Z,6.10
2017-09-29T07:29:42.636Z,6.10
2017-09-29T07:32:10.827Z,6.53
2017-09-29T07:34:38.587Z,6.13
2017-09-29T07:37:06.252Z,9.33
2017-09-29T07:39:34.006Z,9.90
2017-09-29T07:42:02.078Z,6.10
2017-09-29T07:44:29.782Z,5.93
2017-09-29T07:46:57.514Z,6.40
2017-09-29T07:49:25.171Z,9.17
2017-09-29T07:51:52.923Z,9.43
2017-09-29T07:54:21.252Z,9.40
2017-09-29T07:56:49.507Z,6.77
2017-09-29T07:59:17.188Z,6.57
2017-09-29T08:01:44.891Z,8.30
2017-09-29T08:04:12.583Z,7.83
2017-09-29T08:06:40.738Z,9.97
2017-09-29T08:09:08.485Z,6.47
2017-09-29T08:11:36.231Z,9.33
2017-09-29T08:14:03.978Z,7.23
2017-09-29T08:16:31.679Z,5.97
2017-09-29T08:18:59.327Z,8.50
2017-09-29T08:21:26.976Z,5.20
2017-09-29T08:23:54.686Z,6.80
2017-09-29T08:26:22.819Z,5.60
2017-09-29T08:28:50.567Z,7.17
2017-09-29T08:31:18.275Z,6.97
2017-09-29T08:33:45.928Z,6.03
2017-09-29T08:36:13.603Z,5.30
2017-09-29T08:38:41.453Z,6.00
2017-09-29T08:41:09.200Z,6.23
2017-09-29T08:43:36.868Z,6.07
2017-09-29T08:46:04.988Z,6.60
2017-09-29T08:48:32.679Z,5.73
2017-09-29T08:51:00.723Z,6.40
2017-09-29T08:53:28.444Z,5.73
2017-09-29T08:55:56.088Z,7.67
2017-09-29T08:58:23.730Z,5.80
2017-09-29T09:00:51.494Z,8.90
2017-09-29T09:03:19.234Z,8.40
2017-09-29T09:05:46.982Z,8.23
2017-09-29T09:08:14.754Z,7.53
2017-09-29T09:10:42.802Z,6.17
2017-09-29T09:13:10.530Z,5.77
2017-09-29T09:15:38.367Z,10.10
2017-09-29T09:18:06.023Z,8.47
2017-09-29T09:20:33.696Z,6.20
2017-09-29T09:23:01.795Z,7.90
2017-09-29T09:25:29.472Z,8.50
2017-09-29T09:27:57.119Z,11.63
2017-09-29T09:30:24.913Z,6.97
2017-09-29T09:32:52.555Z,6.47
2017-09-29T09:35:20.207Z,25.53
2017-09-29T09:37:47.924Z,18.70
2017-09-29T09:40:15.575Z,12.13
2017-09-29T09:42:43.615Z,8.23
2017-09-29T09:45:11.476Z,8.37
2017-09-29T09:47:39.131Z,11.70
2017-09-29T09:50:07.181Z,7.83
2017-09-29T09:52:35.278Z,7.10
2017-09-29T09:55:02.952Z,12.90
2017-09-29T09:57:30.603Z,6.87
2017-09-29T09:59:58.310Z,8.00
2017-09-29T10:02:26.351Z,7.90
2017-09-29T10:04:54.356Z,6.90
2017-09-29T10:07:22.705Z,8.10
2017-09-29T10:09:50.543Z,7.90
2017-09-29T10:12:18.318Z,10.80
2017-09-29T10:14:46.126Z,10.17
2017-09-29T10:17:13.779Z,10.30
2017-09-29T10:19:41.452Z,7.60
2017-09-29T10:22:09.171Z,8.50
2017-09-29T10:24:36.824Z,7.20
2017-09-29T10:27:04.532Z,9.83
2017-09-29T10:29:32.657Z,10.93
2017-09-29T10:32:00.376Z,6.80
2017-09-29T10:34:28.040Z,6.73
2017-09-29T10:36:55.730Z,14.93
2017-09-29T10:39:26.345Z,7.20
2017-09-29T10:41:54.149Z,8.40
2017-09-29T10:44:21.847Z,10.43
2017-09-29T10:46:49.542Z,8.03
2017-09-29T10:49:17.208Z,9.13
2017-09-29T10:51:44.908Z,8.07
2017-09-29T10:54:12.567Z,7.30
2017-09-29T10:56:40.326Z,6.80
2017-09-29T10:59:08.176Z,7.30
2017-09-29T11:01:35.831Z,7.00
2017-09-29T11:04:03.687Z,7.50
2017-09-29T11:06:31.382Z,9.73
2017-09-29T11:08:59.165Z,7.60
2017-09-29T11:11:26.814Z,9.23
2017-09-29T11:13:54.561Z,13.63
2017-09-29T11:16:22.204Z,9.23
2017-09-29T11:18:49.950Z,8.53
2017-09-29T11:21:17.698Z,7.40
2017-09-29T11:23:45.348Z,8.43
2017-09-29T11:26:13.090Z,11.63
2017-09-29T11:28:40.837Z,8.53
2017-09-29T11:31:08.502Z,8.80
2017-09-29T11:33:36.229Z,16.33
2017-09-29T11:36:04.028Z,7.93
2017-09-29T11:38:31.681Z,6.93
2017-09-29T11:40:59.368Z,8.50
2017-09-29T11:43:27.067Z,8.43
2017-09-29T11:45:54.874Z,11.33
2017-09-29T11:48:22.612Z,8.10
2017-09-29T11:50:50.667Z,9.73
2017-09-29T11:53:18.322Z,12.37
2017-09-29T11:55:45.983Z,8.90
2017-09-29T11:58:14.135Z,10.00
2017-09-29T12:00:41.803Z,7.93
2017-09-29T12:03:09.454Z,9.40
2017-09-29T12:05:37.252Z,11.70
2017-09-29T12:08:04.899Z,11.13
2017-09-29T12:10:32.644Z,12.40
2017-09-29T12:13:00.348Z,9.90
2017-09-29T12:15:28.036Z,15.57
2017-09-29T12:17:55.681Z,11.90
2017-09-29T12:20:23.411Z,11.47
2017-09-29T12:22:51.072Z,18.07
2017-09-29T12:25:18.828Z,9.30
2017-09-29T12:27:46.570Z,12.33
2017-09-29T12:30:14.317Z,10.50
2017-09-29T12:32:41.967Z,12.57
2017-09-29T12:35:09.672Z,14.40
2017-09-29T12:37:37.331Z,11.70
2017-09-29T12:40:04.979Z,16.00
2017-09-29T12:42:32.745Z,13.20
2017-09-29T12:45:00.493Z,9.77
2017-09-29T12:47:28.142Z,10.30
2017-09-29T12:49:55.842Z,8.93
2017-09-29T12:52:23.634Z,10.43
2017-09-29T12:54:51.280Z,9.90
2017-09-29T12:57:18.975Z,10.50
2017-09-29T12:59:46.614Z,8.93
2017-09-29T13:02:14.725Z,17.50
2017-09-29T13:04:42.472Z,8.37
2017-09-29T13:07:10.163Z,8.90
2017-09-29T13:09:37.872Z,9.50
2017-09-29T13:12:05.713Z,9.40
2017-09-29T13:14:33.461Z,19.53
2017-09-29T13:17:01.107Z,16.23
2017-09-29T13:19:28.914Z,11.50
2017-09-29T13:21:56.556Z,9.37
2017-09-29T13:24:24.247Z,11.70
2017-09-29T13:26:51.994Z,11.63
2017-09-29T13:29:19.742Z,11.53
2017-09-29T13:31:47.439Z,10.80
2017-09-29T13:34:15.543Z,15.20
2017-09-29T13:36:43.238Z,13.30
2017-09-29T13:39:10.935Z,9.00
2017-09-29T13:41:38.688Z,11.70
2017-09-29T13:44:06.430Z,10.47
2017-09-29T13:46:34.075Z,11.00
2017-09-29T13:49:01.821Z,9.83
2017-09-29T13:51:29.487Z,9.50
2017-09-29T13:53:57.315Z,8.63
2017-09-29T13:56:25.033Z,16.37
2017-09-29T13:58:52.676Z,12.77
2017-09-29T14:01:20.461Z,11.73
2017-09-29T14:03:48.213Z,11.80
2017-09-29T14:06:15.862Z,15.30
2017-09-29T14:08:43.513Z,13.80
2017-09-29T14:11:11.241Z,18.07
2017-09-29T14:13:38.892Z,12.93
2017-09-29T14:16:06.736Z,14.07
2017-09-29T14:18:34.647Z,14.57
2017-09-29T14:21:02.839Z,19.23
2017-09-29T14:23:30.593Z,19.53
2017-09-29T14:25:58.403Z,17.00
2017-09-29T14:28:26.054Z,17.53
2017-09-29T14:30:53.699Z,14.70
2017-09-29T14:33:21.891Z,18.13
2017-09-29T14:35:49.543Z,14.97
2017-09-29T14:38:17.282Z,15.40
2017-09-29T14:40:45.234Z,12.40
2017-09-29T14:43:12.886Z,13.30
2017-09-29T14:45:40.559Z,13.03
2017-09-29T14:48:08.785Z,18.90
2017-09-29T14:50:36.435Z,13.23
2017-09-29T14:53:04.096Z,23.37
2017-09-29T14:55:32.206Z,20.23
2017-09-29T14:57:59.873Z,20.60
2017-09-29T15:00:27.621Z,18.30
2017-09-29T15:02:55.372Z,18.93
2017-09-29T15:05:23.119Z,21.03
2017-09-29T15:07:50.865Z,17.90
2017-09-29T15:10:18.570Z,21.03
2017-09-29T15:12:45.718Z,19.33
2017-09-29T15:15:13.391Z,17.37
2017-09-29T15:17:41.137Z,18.20
2017-09-29T15:20:08.783Z,28.10
2017-09-29T15:22:36.529Z,33.63
2017-09-29T15:25:04.277Z,20.63
2017-09-29T15:27:32.024Z,21.40
2017-09-29T15:29:59.770Z,22.00
2017-09-29T15:32:27.518Z,20.77
2017-09-29T15:34:55.171Z,19.23
2017-09-29T15:37:22.819Z,20.43
2017-09-29T15:39:50.520Z,22.27
2017-09-29T15:42:18.175Z,24.30
2017-09-29T15:44:45.846Z,37.03
2017-09-29T15:47:13.574Z,21.70
2017-09-29T15:49:41.224Z,24.57
2017-09-29T15:52:08.863Z,19.90
2017-09-29T15:54:36.732Z,24.23
2017-09-29T15:57:04.377Z,27.87
2017-09-29T15:59:32.125Z,24.10
2017-09-29T16:01:59.823Z,26.83
2017-09-29T16:04:27.475Z,24.23
2017-09-29T16:06:55.135Z,33.90
2017-09-29T16:09:22.912Z,24.47
2017-09-29T16:11:50.555Z,23.17
2017-09-29T16:14:18.334Z,33.10
2017-09-29T16:16:46.464Z,32.97
2017-09-29T16:19:14.111Z,31.93
2017-09-29T16:21:41.853Z,31.33
2017-09-29T16:24:09.702Z,25.90
2017-09-29T16:26:37.449Z,30.43
2017-09-29T16:29:05.103Z,27.47
2017-09-29T16:31:32.842Z,31.80
2017-09-29T16:34:00.495Z,25.23
2017-09-29T16:36:28.158Z,34.17
2017-09-29T16:38:55.881Z,29.33
2017-09-29T16:41:23.531Z,32.27
2017-09-29T16:43:51.275Z,30.33
2017-09-29T16:46:19.020Z,26.67
2017-09-29T16:48:46.666Z,27.67
2017-09-29T16:51:14.326Z,27.70
2017-09-29T16:53:42.035Z,27.00
2017-09-29T16:56:09.684Z,30.10
2017-09-29T16:58:37.330Z,37.87
2017-09-29T17:01:05.094Z,24.23
2017-09-29T17:03:32.811Z,29.27
2017-09-29T17:06:00.694Z,29.03
2017-09-29T17:08:28.642Z,29.53
2017-09-29T17:10:56.290Z,31.00
2017-09-29T17:13:24.037Z,37.30
2017-09-29T17:15:51.735Z,31.30
2017-09-29T17:18:19.432Z,27.50
2017-09-29T17:20:47.090Z,31.63
2017-09-29T17:23:15.025Z,32.60
2017-09-29T17:25:42.773Z,32.23
2017-09-29T17:28:10.520Z,31.00
2017-09-29T17:30:38.369Z,35.17
2017-09-29T17:33:06.119Z,36.20
2017-09-29T17:35:33.865Z,32.13
2017-09-29T17:38:01.612Z,36.27
2017-09-29T17:40:29.267Z,152.13
2017-09-29T17:42:57.003Z,65.87
2017-09-29T17:45:24.732Z,68.10
2017-09-29T17:47:52.500Z,136.27
2017-09-29T17:50:20.247Z,130.40
2017-09-29T17:52:48.046Z,70.13
2017-09-29T17:55:15.741Z,54.33
2017-09-29T17:57:43.591Z,35.43
2017-09-29T18:00:11.308Z,24.60
2017-09-29T18:02:38.986Z,21.80
2017-09-29T18:05:06.730Z,22.93
2017-09-29T18:07:34.477Z,24.70
2017-09-29T18:10:02.225Z,28.93
2017-09-29T18:12:29.875Z,19.97
2017-09-29T18:14:57.820Z,23.33
2017-09-29T18:17:25.571Z,21.23
2017-09-29T18:19:53.319Z,27.10
2017-09-29T18:22:21.024Z,20.53
2017-09-29T18:24:48.710Z,24.40
2017-09-29T18:27:16.458Z,23.70
2017-09-29T18:29:44.205Z,24.77
2017-09-29T18:32:11.859Z,23.83
2017-09-29T18:37:13.815Z,21.30
2017-09-29T18:39:41.470Z,23.93
2017-09-29T18:42:09.582Z,26.47
2017-09-29T18:44:37.331Z,19.40
2017-09-29T18:50:04.323Z,21.20
2017-09-29T18:52:32.019Z,23.30
2017-09-29T18:54:59.765Z,23.23
2017-09-29T18:57:27.615Z,22.17
2017-09-29T18:59:55.364Z,17.83
2017-09-29T19:02:23.066Z,22.30
2017-09-29T19:04:51.679Z,23.90
2017-09-29T19:07:19.322Z,26.30
2017-09-29T19:09:47.071Z,23.50
2017-09-29T19:12:15.799Z,25.80
2017-09-29T19:14:43.483Z,27.00
2017-09-29T19:17:11.233Z,26.10
2017-09-29T19:19:38.959Z,25.13
2017-09-29T19:22:06.625Z,24.77
2017-09-29T19:24:34.372Z,20.20
2017-09-29T19:27:02.324Z,19.33
2017-09-29T19:29:31.506Z,21.87
2017-09-29T19:31:59.355Z,18.93
2017-09-29T19:34:27.103Z,25.20
2017-09-29T19:36:54.852Z,25.60
2017-09-29T19:39:22.599Z,19.23
2017-09-29T19:41:50.449Z,25.23
2017-09-29T19:44:18.198Z,20.73
2017-09-29T19:46:47.276Z,27.23
2017-09-29T19:49:15.012Z,22.63
2017-09-29T19:51:45.022Z,31.50
2017-09-29T19:54:12.769Z,41.50
2017-09-29T19:56:40.618Z,26.93
2017-09-29T19:59:08.365Z,27.53
2017-09-29T20:01:36.166Z,22.07
2017-09-29T20:04:03.962Z,23.20
2017-09-29T20:06:31.708Z,27.20
2017-09-29T20:09:00.175Z,22.97
2017-09-29T20:11:27.891Z,24.63
2017-09-29T20:13:55.569Z,24.97
2017-09-29T20:16:23.314Z,28.10
2017-09-29T20:18:51.062Z,20.00
2017-09-29T20:21:18.808Z,24.87
2017-09-29T20:23:46.467Z,23.00
2017-09-29T20:26:14.171Z,22.80
2017-09-29T20:28:41.845Z,25.63
2017-09-29T20:31:09.491Z,28.60
2017-09-29T20:33:37.194Z,24.87
2017-09-29T20:36:04.843Z,29.93
2017-09-29T20:38:32.490Z,28.00
2017-09-29T20:41:00.274Z,22.23
2017-09-29T20:43:27.934Z,20.87
2017-09-29T20:45:55.669Z,24.97
2017-09-29T20:48:23.468Z,24.83
2017-09-29T20:50:51.124Z,23.17
2017-09-29T20:53:18.810Z,24.50
2017-09-29T20:55:46.507Z,20.30
2017-09-29T20:58:14.159Z,24.10
2017-09-29T21:00:41.820Z,23.73
2017-09-29T21:03:09.550Z,18.97
2017-09-29T21:05:37.264Z,25.50
2017-09-29T21:08:05.312Z,23.53
2017-09-29T21:10:33.242Z,23.00
2017-09-29T21:13:00.897Z,22.20
2017-09-29T21:15:28.567Z,24.03
2017-09-29T21:17:56.674Z,20.10
2017-09-29T21:20:24.336Z,25.93
2017-09-29T21:22:52.084Z,19.10
2017-09-29T21:25:19.933Z,21.40
2017-09-29T21:27:47.886Z,23.33
2017-09-29T21:30:15.576Z,24.00
2017-09-29T21:32:43.380Z,22.67
2017-09-29T21:35:11.127Z,20.00
2017-09-29T21:37:38.783Z,20.93
2017-09-29T21:40:06.621Z,22.60
2017-09-29T21:42:34.367Z,17.83
2017-09-29T21:45:02.023Z,20.67
2017-09-29T21:47:29.758Z,19.80
2017-09-29T21:49:57.414Z,18.77
2017-09-29T21:52:25.155Z,20.30
2017-09-29T21:54:52.899Z,20.33
2017-09-29T21:57:20.555Z,25.13
2017-09-29T21:59:48.211Z,24.87
2017-09-29T22:02:16.554Z,24.87
2017-09-29T22:04:44.208Z,17.30
2017-09-29T22:07:11.866Z,26.40
2017-09-29T22:09:40.101Z,21.63
2017-09-29T22:12:07.848Z,20.27
2017-09-29T22:14:35.596Z,19.20
2017-09-29T22:17:03.445Z,18.07
2017-09-29T22:19:31.193Z,16.57
2017-09-29T22:21:58.939Z,27.57
2017-09-29T22:24:26.663Z,18.67
2017-09-29T22:26:54.319Z,20.37
2017-09-29T22:29:22.081Z,21.70
2017-09-29T22:31:49.932Z,15.47
2017-09-29T22:34:17.599Z,16.93
2017-09-29T22:36:45.648Z,19.00
2017-09-29T22:39:13.372Z,21.77
2017-09-29T22:41:41.031Z,23.40
2017-09-29T22:44:08.699Z,18.20
2017-09-29T22:46:36.800Z,19.03
2017-09-29T22:49:04.469Z,17.20
2017-09-29T22:51:32.124Z,19.37
2017-09-29T22:53:59.887Z,20.03
2017-09-29T22:56:28.017Z,18.77
2017-09-29T22:58:55.767Z,19.70
2017-09-29T23:01:23.475Z,21.43
2017-09-29T23:03:51.123Z,24.03
2017-09-29T23:06:18.772Z,20.30
2017-09-29T23:08:46.472Z,20.53
2017-09-29T23:11:14.519Z,18.73
2017-09-29T23:13:42.165Z,25.40
2017-09-29T23:16:09.997Z,18.33
2017-09-29T23:18:37.744Z,18.43
2017-09-29T23:21:05.495Z,20.20
2017-09-29T23:23:33.238Z,23.23
2017-09-29T23:26:00.986Z,20.83
2017-09-29T23:28:28.633Z,22.10
2017-09-29T23:30:56.443Z,16.97
2017-09-29T23:33:24.129Z,18.23
2017-09-29T23:35:51.875Z,18.50
2017-09-29T23:38:19.579Z,15.90
2017-09-29T23:40:47.268Z,18.10
2017-09-29T23:43:15.014Z,19.20
2017-09-29T23:45:42.761Z,16.33
2017-09-29T23:48:10.428Z,20.40
2017-09-29T23:50:38.153Z,17.57
2017-09-29T23:53:06.002Z,17.50
2017-09-29T23:55:33.750Z,18.20
2017-09-29T23:58:01.497Z,14.30
